Sarasota, FL

3:06 AM EST on December 15, 2019 (GMT -0500)
Laurel Park | | Change Station
Active Advisory: Coastal Hazard Statement Active Notice: Coastal Hazard Statement

Elev 30 ft 27.34 °N, 82.54 °W | Updated 13 seconds ago

Clear
Clear
55.2 °F
Feels Like 55.2 °F
N
0
Wind Variable Wind from SE
Gusts 0.0 mph

Today
High -- | Low -- °F
--% Chance of Precip.
Yesterday
High -- | Low -- °F
Precip. -- in
Pressure 30.01 in
Visibility 10.0 miles
Clouds Clear
Dew Point 55 °F
Humidity 98%
Rainfall 0.00 in
Snow Depth Not available.
7:12 AM 5:38 PM
Waning Gibbous, 89% visible
METAR KSRQ 150653Z AUTO 00000KT 10SM CLR 13/12 A3001 RMK AO2 SLP161 T01330122
Pressure 30.01 in
Visibility 10.0 miles
Clouds Clear
Dew Point 55 °F
Humidity 98%
Rainfall 0.00 in
Snow Depth Not available.
7:12 AM 5:38 PM
Waning Gibbous, 89% visible
METAR KSRQ 150653Z AUTO 00000KT 10SM CLR 13/12 A3001 RMK AO2 SLP161 T01330122

Get Your Daily Forecast Email!

Thanks for signing up!

Be on the lookout for a verification email in your inbox.

You'll start receiving severe weather alerts in your inbox..

×

10-Day Weather Forecast

Almanac

Astronomy

Dec. 15, 2019 Rise Set
Actual Time
Civil Twilight
Nautical Twilight
Astronomical Twilight
Moon
Length of Visible Light
Length of Day
Tomorrow will be .
, % of the Moon is Illuminated

Today's Extremes

State Highs State Lows

Community

WunderPhotos

Category 6

Welcome to Category 6. This is the collective home for Weather Underground's featured writeups by Dr. Jeff Masters (right), Bob Henson (left), Chris Burt, and other regular contributors.

Nearby

Air Quality

  Air Quality AQ Index Pollutant
Not available.

Snow Depth

Station Depth Elevation

Earthquake Activity

City Distance Mag. Time & Date
Minimum magnitude displayed is 2.5.

Coastal Water Temperatures

Place Temperature

Stations

Nearby Weather Stations

Station Location Temp. Windchill Dew Point Humidity Wind Precip. Elev Updated Type
                   

Watches & Warnings

Coastal Hazard Statement
Issued: 2:54 AM EST Dec. 14, 2019 – National Weather Service

... High rip current risk extended and now in effect from 7 am EST
this morning through Sunday morning...

* what... dangerous rip currents expected.

* Where... Pinellas, coastal Hillsborough, coastal Manatee,
coastal Sarasota, coastal Charlotte and coastal Lee counties.

* When... from Saturday morning through Sunday morning.

* Impacts... strong rip currents will lead to dangerous swimming
conditions at area beaches. Rip currents can sweep even the
best swimmers away from shore into deeper water.

Precautionary/preparedness actions...

Swim near a lifeguard. If caught in a rip current, relax and
float. Don't swim against the current. If able, swim in a
direction following the shoreline. If unable to escape, face the
shore and call or wave for help.




Https://www.Weather.Gov/Tampa